sensor_id;sensor_type;location;lat;lon;timestamp;P1;durP1;ratioP1;P2;durP2;ratioP2
69837;SDS011;57135;51.992;4.476;2023-02-19T00:00:51;10.42;;;7.77;;
69837;SDS011;57135;51.992;4.476;2023-02-19T00:03:16;10.65;;;7.73;;
69837;SDS011;57135;51.992;4.476;2023-02-19T00:05:42;10.78;;;7.87;;
69837;SDS011;57135;51.992;4.476;2023-02-19T00:08:07;9.88;;;7.35;;
69837;SDS011;57135;51.992;4.476;2023-02-19T00:10:33;9.47;;;7.17;;
69837;SDS011;57135;51.992;4.476;2023-02-19T00:12:58;9.27;;;6.85;;
69837;SDS011;57135;51.992;4.476;2023-02-19T00:15:24;10.42;;;7.56;;
69837;SDS011;57135;51.992;4.476;2023-02-19T00:17:49;9.22;;;6.88;;
69837;SDS011;57135;51.992;4.476;2023-02-19T00:20:15;8.89;;;6.70;;
69837;SDS011;57135;51.992;4.476;2023-02-19T00:22:40;8.99;;;6.78;;
69837;SDS011;57135;51.992;4.476;2023-02-19T00:25:06;9.31;;;7.00;;
69837;SDS011;57135;51.992;4.476;2023-02-19T00:27:31;9.39;;;7.13;;
69837;SDS011;57135;51.992;4.476;2023-02-19T00:29:57;8.96;;;6.81;;
69837;SDS011;57135;51.992;4.476;2023-02-19T00:32:22;9.56;;;7.20;;
69837;SDS011;57135;51.992;4.476;2023-02-19T00:34:48;9.75;;;7.28;;
69837;SDS011;57135;51.992;4.476;2023-02-19T00:37:13;9.60;;;7.17;;
69837;SDS011;57135;51.992;4.476;2023-02-19T00:39:39;9.16;;;6.82;;
69837;SDS011;57135;51.992;4.476;2023-02-19T00:42:04;9.51;;;6.99;;
69837;SDS011;57135;51.992;4.476;2023-02-19T00:44:30;9.04;;;6.87;;
69837;SDS011;57135;51.992;4.476;2023-02-19T00:46:55;8.76;;;6.67;;
69837;SDS011;57135;51.992;4.476;2023-02-19T00:49:21;8.08;;;6.23;;
69837;SDS011;57135;51.992;4.476;2023-02-19T00:51:49;6.99;;;5.59;;
69837;SDS011;57135;51.992;4.476;2023-02-19T00:54:15;8.27;;;6.25;;
69837;SDS011;57135;51.992;4.476;2023-02-19T00:56:41;8.40;;;6.45;;
69837;SDS011;57135;51.992;4.476;2023-02-19T00:59:07;7.67;;;6.00;;
69837;SDS011;57135;51.992;4.476;2023-02-19T01:01:33;7.81;;;6.14;;
69837;SDS011;57135;51.992;4.476;2023-02-19T01:03:59;9.51;;;7.25;;
69837;SDS011;57135;51.992;4.476;2023-02-19T01:06:24;9.01;;;6.78;;
69837;SDS011;57135;51.992;4.476;2023-02-19T01:08:50;9.00;;;6.78;;
69837;SDS011;57135;51.992;4.476;2023-02-19T01:11:16;8.88;;;6.63;;
69837;SDS011;57135;51.992;4.476;2023-02-19T01:13:42;8.58;;;6.38;;
69837;SDS011;57135;51.992;4.476;2023-02-19T01:16:13;9.40;;;6.85;;
69837;SDS011;57135;51.992;4.476;2023-02-19T01:18:40;9.05;;;6.68;;
69837;SDS011;57135;51.992;4.476;2023-02-19T01:21:07;8.88;;;6.60;;
69837;SDS011;57135;51.992;4.476;2023-02-19T01:23:35;8.83;;;6.70;;
69837;SDS011;57135;51.992;4.476;2023-02-19T01:26:04;8.85;;;6.80;;
69837;SDS011;57135;51.992;4.476;2023-02-19T01:28:31;8.66;;;6.62;;
69837;SDS011;57135;51.992;4.476;2023-02-19T01:31:01;9.33;;;6.85;;
69837;SDS011;57135;51.992;4.476;2023-02-19T01:33:27;9.67;;;7.04;;
69837;SDS011;57135;51.992;4.476;2023-02-19T01:35:53;9.45;;;6.84;;
69837;SDS011;57135;51.992;4.476;2023-02-19T01:38:18;8.98;;;6.69;;
69837;SDS011;57135;51.992;4.476;2023-02-19T01:40:44;8.46;;;6.49;;
69837;SDS011;57135;51.992;4.476;2023-02-19T01:43:15;8.20;;;6.43;;
69837;SDS011;57135;51.992;4.476;2023-02-19T01:45:44;8.75;;;6.65;;
69837;SDS011;57135;51.992;4.476;2023-02-19T01:48:15;9.10;;;6.81;;
69837;SDS011;57135;51.992;4.476;2023-02-19T01:50:49;8.78;;;6.44;;
69837;SDS011;57135;51.992;4.476;2023-02-19T01:53:21;9.55;;;6.96;;
69837;SDS011;57135;51.992;4.476;2023-02-19T01:55:50;9.13;;;6.68;;
69837;SDS011;57135;51.992;4.476;2023-02-19T01:58:19;8.51;;;6.42;;
69837;SDS011;57135;51.992;4.476;2023-02-19T02:00:44;8.78;;;6.47;;
69837;SDS011;57135;51.992;4.476;2023-02-19T02:03:11;9.79;;;7.15;;
69837;SDS011;57135;51.992;4.476;2023-02-19T02:06:00;9.20;;;6.77;;
69837;SDS011;57135;51.992;4.476;2023-02-19T02:08:26;8.24;;;6.26;;
69837;SDS011;57135;51.992;4.476;2023-02-19T02:11:11;7.66;;;5.89;;
69837;SDS011;57135;51.992;4.476;2023-02-19T02:13:36;9.39;;;6.82;;
69837;SDS011;57135;51.992;4.476;2023-02-19T02:16:11;10.37;;;7.32;;
69837;SDS011;57135;51.992;4.476;2023-02-19T02:18:45;10.97;;;7.61;;
69837;SDS011;57135;51.992;4.476;2023-02-19T02:24:11;9.75;;;7.04;;
69837;SDS011;57135;51.992;4.476;2023-02-19T02:30:04;9.74;;;6.89;;
69837;SDS011;57135;51.992;4.476;2023-02-19T02:35:43;9.45;;;6.96;;
69837;SDS011;57135;51.992;4.476;2023-02-19T02:38:19;9.64;;;6.97;;
69837;SDS011;57135;51.992;4.476;2023-02-19T02:40:51;9.66;;;6.89;;
69837;SDS011;57135;51.992;4.476;2023-02-19T02:43:19;9.47;;;6.77;;
69837;SDS011;57135;51.992;4.476;2023-02-19T02:45:44;10.25;;;7.42;;
69837;SDS011;57135;51.992;4.476;2023-02-19T02:56:44;8.97;;;6.63;;
69837;SDS011;57135;51.992;4.476;2023-02-19T02:59:13;9.23;;;6.56;;
69837;SDS011;57135;51.992;4.476;2023-02-19T03:04:31;10.62;;;7.42;;
69837;SDS011;57135;51.992;4.476;2023-02-19T03:07:25;10.43;;;7.28;;
69837;SDS011;57135;51.992;4.476;2023-02-19T03:09:57;10.74;;;7.52;;
69837;SDS011;57135;51.992;4.476;2023-02-19T03:12:25;10.51;;;7.26;;
69837;SDS011;57135;51.992;4.476;2023-02-19T03:15:12;11.26;;;7.81;;
69837;SDS011;57135;51.992;4.476;2023-02-19T03:18:00;10.33;;;7.11;;
69837;SDS011;57135;51.992;4.476;2023-02-19T03:20:49;10.69;;;7.25;;
69837;SDS011;57135;51.992;4.476;2023-02-19T03:23:18;10.20;;;7.03;;
69837;SDS011;57135;51.992;4.476;2023-02-19T03:26:07;11.17;;;7.65;;
69837;SDS011;57135;51.992;4.476;2023-02-19T03:28:34;10.80;;;7.43;;
69837;SDS011;57135;51.992;4.476;2023-02-19T03:31:23;10.38;;;7.10;;
69837;SDS011;57135;51.992;4.476;2023-02-19T03:33:53;10.57;;;7.13;;
69837;SDS011;57135;51.992;4.476;2023-02-19T03:36:22;9.74;;;6.68;;
69837;SDS011;57135;51.992;4.476;2023-02-19T03:39:07;9.19;;;6.32;;
69837;SDS011;57135;51.992;4.476;2023-02-19T03:45:04;11.02;;;7.44;;
69837;SDS011;57135;51.992;4.476;2023-02-19T03:50:19;10.88;;;7.52;;
69837;SDS011;57135;51.992;4.476;2023-02-19T03:58:18;8.38;;;6.07;;
69837;SDS011;57135;51.992;4.476;2023-02-19T04:03:56;9.33;;;6.52;;
69837;SDS011;57135;51.992;4.476;2023-02-19T04:06:33;10.42;;;7.21;;
69837;SDS011;57135;51.992;4.476;2023-02-19T04:09:02;9.92;;;7.01;;
69837;SDS011;57135;51.992;4.476;2023-02-19T04:11:31;10.25;;;7.22;;
69837;SDS011;57135;51.992;4.476;2023-02-19T04:14:40;10.25;;;7.01;;
69837;SDS011;57135;51.992;4.476;2023-02-19T04:16:57;11.60;;;7.85;;
69837;SDS011;57135;51.992;4.476;2023-02-19T04:19:27;10.89;;;7.45;;
69837;SDS011;57135;51.992;4.476;2023-02-19T04:21:57;10.90;;;7.58;;
69837;SDS011;57135;51.992;4.476;2023-02-19T04:24:26;11.06;;;7.66;;
69837;SDS011;57135;51.992;4.476;2023-02-19T04:26:55;10.49;;;7.24;;
69837;SDS011;57135;51.992;4.476;2023-02-19T04:29:22;11.68;;;7.89;;
69837;SDS011;57135;51.992;4.476;2023-02-19T04:31:47;11.92;;;7.97;;
69837;SDS011;57135;51.992;4.476;2023-02-19T04:34:13;11.47;;;7.84;;
69837;SDS011;57135;51.992;4.476;2023-02-19T04:36:38;11.27;;;7.67;;
69837;SDS011;57135;51.992;4.476;2023-02-19T04:39:04;11.94;;;8.06;;
69837;SDS011;57135;51.992;4.476;2023-02-19T04:41:29;11.37;;;7.70;;
69837;SDS011;57135;51.992;4.476;2023-02-19T04:43:55;11.36;;;7.77;;
69837;SDS011;57135;51.992;4.476;2023-02-19T04:46:20;10.59;;;7.37;;
69837;SDS011;57135;51.992;4.476;2023-02-19T04:48:46;10.83;;;7.44;;
69837;SDS011;57135;51.992;4.476;2023-02-19T04:51:11;11.02;;;7.46;;
69837;SDS011;57135;51.992;4.476;2023-02-19T04:53:36;10.62;;;7.22;;
69837;SDS011;57135;51.992;4.476;2023-02-19T04:56:09;10.86;;;7.34;;
69837;SDS011;57135;51.992;4.476;2023-02-19T04:58:36;10.41;;;7.12;;
69837;SDS011;57135;51.992;4.476;2023-02-19T05:01:02;10.94;;;7.41;;
69837;SDS011;57135;51.992;4.476;2023-02-19T05:03:28;10.96;;;7.47;;
69837;SDS011;57135;51.992;4.476;2023-02-19T05:05:53;10.67;;;7.31;;
69837;SDS011;57135;51.992;4.476;2023-02-19T05:08:19;10.74;;;7.36;;
69837;SDS011;57135;51.992;4.476;2023-02-19T05:10:44;9.76;;;6.83;;
69837;SDS011;57135;51.992;4.476;2023-02-19T05:13:10;10.80;;;7.56;;
69837;SDS011;57135;51.992;4.476;2023-02-19T05:15:35;11.05;;;7.66;;
69837;SDS011;57135;51.992;4.476;2023-02-19T05:18:01;11.16;;;7.72;;
69837;SDS011;57135;51.992;4.476;2023-02-19T05:20:27;9.16;;;6.79;;
69837;SDS011;57135;51.992;4.476;2023-02-19T05:22:52;8.28;;;6.43;;
69837;SDS011;57135;51.992;4.476;2023-02-19T05:25:18;7.64;;;6.19;;
69837;SDS011;57135;51.992;4.476;2023-02-19T05:27:43;7.34;;;6.02;;
69837;SDS011;57135;51.992;4.476;2023-02-19T05:30:09;6.30;;;5.39;;
69837;SDS011;57135;51.992;4.476;2023-02-19T05:32:35;6.65;;;5.65;;
69837;SDS011;57135;51.992;4.476;2023-02-19T05:35:00;6.73;;;5.71;;
69837;SDS011;57135;51.992;4.476;2023-02-19T05:37:26;6.39;;;5.50;;
69837;SDS011;57135;51.992;4.476;2023-02-19T05:39:51;6.28;;;5.50;;
69837;SDS011;57135;51.992;4.476;2023-02-19T05:42:17;6.45;;;5.66;;
69837;SDS011;57135;51.992;4.476;2023-02-19T05:44:42;6.09;;;5.44;;
69837;SDS011;57135;51.992;4.476;2023-02-19T05:47:08;6.19;;;5.61;;
69837;SDS011;57135;51.992;4.476;2023-02-19T05:49:33;6.50;;;5.79;;
69837;SDS011;57135;51.992;4.476;2023-02-19T05:51:59;6.47;;;5.79;;
69837;SDS011;57135;51.992;4.476;2023-02-19T05:54:27;6.59;;;5.84;;
69837;SDS011;57135;51.992;4.476;2023-02-19T05:56:53;6.96;;;6.12;;
69837;SDS011;57135;51.992;4.476;2023-02-19T05:59:20;7.61;;;6.55;;
69837;SDS011;57135;51.992;4.476;2023-02-19T06:01:48;7.23;;;6.17;;
69837;SDS011;57135;51.992;4.476;2023-02-19T06:04:15;6.48;;;5.63;;
69837;SDS011;57135;51.992;4.476;2023-02-19T06:06:43;6.15;;;5.56;;
69837;SDS011;57135;51.992;4.476;2023-02-19T06:09:09;6.82;;;6.13;;
69837;SDS011;57135;51.992;4.476;2023-02-19T06:11:37;6.40;;;5.78;;
69837;SDS011;57135;51.992;4.476;2023-02-19T06:14:03;6.32;;;5.76;;
69837;SDS011;57135;51.992;4.476;2023-02-19T06:16:29;6.17;;;5.77;;
69837;SDS011;57135;51.992;4.476;2023-02-19T06:18:56;5.83;;;5.44;;
69837;SDS011;57135;51.992;4.476;2023-02-19T06:21:21;6.60;;;6.00;;
69837;SDS011;57135;51.992;4.476;2023-02-19T06:23:47;6.64;;;5.89;;
69837;SDS011;57135;51.992;4.476;2023-02-19T06:26:18;6.78;;;6.17;;
69837;SDS011;57135;51.992;4.476;2023-02-19T06:28:46;6.41;;;5.72;;
69837;SDS011;57135;51.992;4.476;2023-02-19T06:31:13;6.53;;;5.76;;
69837;SDS011;57135;51.992;4.476;2023-02-19T06:33:40;6.76;;;5.86;;
69837;SDS011;57135;51.992;4.476;2023-02-19T06:36:07;7.34;;;6.27;;
69837;SDS011;57135;51.992;4.476;2023-02-19T06:38:35;7.38;;;6.41;;
69837;SDS011;57135;51.992;4.476;2023-02-19T06:41:01;6.59;;;5.85;;
69837;SDS011;57135;51.992;4.476;2023-02-19T06:43:29;6.82;;;5.97;;
69837;SDS011;57135;51.992;4.476;2023-02-19T06:45:59;6.83;;;5.99;;
69837;SDS011;57135;51.992;4.476;2023-02-19T06:48:39;6.99;;;6.04;;
69837;SDS011;57135;51.992;4.476;2023-02-19T06:51:05;6.17;;;5.46;;
69837;SDS011;57135;51.992;4.476;2023-02-19T06:53:31;6.21;;;5.61;;
69837;SDS011;57135;51.992;4.476;2023-02-19T06:55:57;5.94;;;5.40;;
69837;SDS011;57135;51.992;4.476;2023-02-19T06:58:24;6.69;;;5.78;;
69837;SDS011;57135;51.992;4.476;2023-02-19T07:00:50;7.76;;;6.43;;
69837;SDS011;57135;51.992;4.476;2023-02-19T07:03:16;7.79;;;6.38;;
69837;SDS011;57135;51.992;4.476;2023-02-19T07:05:41;7.35;;;6.08;;
69837;SDS011;57135;51.992;4.476;2023-02-19T07:08:08;7.65;;;6.42;;
69837;SDS011;57135;51.992;4.476;2023-02-19T07:10:33;7.43;;;6.15;;
69837;SDS011;57135;51.992;4.476;2023-02-19T07:12:59;7.32;;;6.15;;
69837;SDS011;57135;51.992;4.476;2023-02-19T07:15:24;7.94;;;6.63;;
69837;SDS011;57135;51.992;4.476;2023-02-19T07:17:49;7.86;;;6.66;;
69837;SDS011;57135;51.992;4.476;2023-02-19T07:20:15;7.99;;;6.64;;
69837;SDS011;57135;51.992;4.476;2023-02-19T07:22:40;7.83;;;6.61;;
69837;SDS011;57135;51.992;4.476;2023-02-19T07:25:06;7.35;;;6.36;;
69837;SDS011;57135;51.992;4.476;2023-02-19T07:27:32;7.63;;;6.61;;
69837;SDS011;57135;51.992;4.476;2023-02-19T07:29:57;7.66;;;6.69;;
69837;SDS011;57135;51.992;4.476;2023-02-19T07:32:23;6.83;;;6.11;;
69837;SDS011;57135;51.992;4.476;2023-02-19T07:34:48;7.24;;;6.31;;
69837;SDS011;57135;51.992;4.476;2023-02-19T07:37:14;7.81;;;6.78;;
69837;SDS011;57135;51.992;4.476;2023-02-19T07:39:39;6.82;;;6.02;;
69837;SDS011;57135;51.992;4.476;2023-02-19T07:42:05;6.84;;;6.04;;
69837;SDS011;57135;51.992;4.476;2023-02-19T07:44:30;7.04;;;6.10;;
69837;SDS011;57135;51.992;4.476;2023-02-19T07:46:56;6.71;;;5.91;;
69837;SDS011;57135;51.992;4.476;2023-02-19T07:49:21;6.65;;;5.93;;
69837;SDS011;57135;51.992;4.476;2023-02-19T07:51:46;6.74;;;5.88;;
69837;SDS011;57135;51.992;4.476;2023-02-19T07:54:12;7.11;;;6.24;;
69837;SDS011;57135;51.992;4.476;2023-02-19T07:56:38;6.42;;;5.72;;
69837;SDS011;57135;51.992;4.476;2023-02-19T07:59:03;6.44;;;5.74;;
69837;SDS011;57135;51.992;4.476;2023-02-19T08:01:28;6.35;;;5.69;;
69837;SDS011;57135;51.992;4.476;2023-02-19T08:04:13;6.09;;;5.31;;
69837;SDS011;57135;51.992;4.476;2023-02-19T08:06:39;5.66;;;5.07;;
69837;SDS011;57135;51.992;4.476;2023-02-19T08:09:06;6.74;;;5.85;;
69837;SDS011;57135;51.992;4.476;2023-02-19T08:11:31;6.71;;;5.59;;
69837;SDS011;57135;51.992;4.476;2023-02-19T08:14:16;6.46;;;5.38;;
69837;SDS011;57135;51.992;4.476;2023-02-19T08:16:48;6.29;;;5.13;;
69837;SDS011;57135;51.992;4.476;2023-02-19T08:19:15;6.89;;;5.60;;
69837;SDS011;57135;51.992;4.476;2023-02-19T08:21:41;6.00;;;4.98;;
69837;SDS011;57135;51.992;4.476;2023-02-19T08:24:07;6.78;;;5.58;;
69837;SDS011;57135;51.992;4.476;2023-02-19T08:26:33;6.81;;;5.62;;
69837;SDS011;57135;51.992;4.476;2023-02-19T08:28:59;7.20;;;5.91;;
69837;SDS011;57135;51.992;4.476;2023-02-19T08:31:28;7.31;;;6.05;;
69837;SDS011;57135;51.992;4.476;2023-02-19T08:33:56;6.75;;;5.57;;
69837;SDS011;57135;51.992;4.476;2023-02-19T08:36:26;7.74;;;6.27;;
69837;SDS011;57135;51.992;4.476;2023-02-19T08:38:51;7.65;;;6.05;;
69837;SDS011;57135;51.992;4.476;2023-02-19T08:41:17;7.71;;;6.10;;
69837;SDS011;57135;51.992;4.476;2023-02-19T08:43:42;8.63;;;6.74;;
69837;SDS011;57135;51.992;4.476;2023-02-19T08:46:08;8.49;;;6.55;;
69837;SDS011;57135;51.992;4.476;2023-02-19T08:48:35;8.75;;;6.78;;
69837;SDS011;57135;51.992;4.476;2023-02-19T08:51:02;8.65;;;6.86;;
69837;SDS011;57135;51.992;4.476;2023-02-19T08:53:32;7.54;;;6.12;;
69837;SDS011;57135;51.992;4.476;2023-02-19T08:56:06;8.29;;;6.87;;
69837;SDS011;57135;51.992;4.476;2023-02-19T08:58:34;8.41;;;6.91;;
69837;SDS011;57135;51.992;4.476;2023-02-19T09:01:01;7.92;;;6.40;;
69837;SDS011;57135;51.992;4.476;2023-02-19T09:03:27;8.63;;;6.90;;
69837;SDS011;57135;51.992;4.476;2023-02-19T09:05:52;8.34;;;6.58;;
69837;SDS011;57135;51.992;4.476;2023-02-19T09:08:18;7.54;;;6.10;;
69837;SDS011;57135;51.992;4.476;2023-02-19T09:10:44;7.00;;;5.57;;
69837;SDS011;57135;51.992;4.476;2023-02-19T09:13:09;6.52;;;5.36;;
69837;SDS011;57135;51.992;4.476;2023-02-19T09:15:36;6.76;;;5.50;;
69837;SDS011;57135;51.992;4.476;2023-02-19T09:18:02;6.99;;;5.55;;
69837;SDS011;57135;51.992;4.476;2023-02-19T09:20:28;6.55;;;5.15;;
69837;SDS011;57135;51.992;4.476;2023-02-19T09:22:57;6.38;;;5.01;;
69837;SDS011;57135;51.992;4.476;2023-02-19T09:25:23;6.70;;;5.16;;
69837;SDS011;57135;51.992;4.476;2023-02-19T09:27:52;6.49;;;5.07;;
69837;SDS011;57135;51.992;4.476;2023-02-19T09:30:19;6.48;;;5.21;;
69837;SDS011;57135;51.992;4.476;2023-02-19T09:32:44;6.66;;;5.22;;
69837;SDS011;57135;51.992;4.476;2023-02-19T09:35:09;6.37;;;4.98;;
69837;SDS011;57135;51.992;4.476;2023-02-19T09:37:35;5.77;;;4.54;;
69837;SDS011;57135;51.992;4.476;2023-02-19T09:40:00;5.50;;;4.40;;
69837;SDS011;57135;51.992;4.476;2023-02-19T09:42:27;5.83;;;4.60;;
69837;SDS011;57135;51.992;4.476;2023-02-19T09:44:57;6.62;;;5.11;;
69837;SDS011;57135;51.992;4.476;2023-02-19T09:47:27;6.25;;;4.78;;
69837;SDS011;57135;51.992;4.476;2023-02-19T09:49:57;5.45;;;4.29;;
69837;SDS011;57135;51.992;4.476;2023-02-19T09:52:46;5.42;;;4.48;;
69837;SDS011;57135;51.992;4.476;2023-02-19T09:57:55;4.98;;;4.25;;
69837;SDS011;57135;51.992;4.476;2023-02-19T10:00:24;4.35;;;3.88;;
69837;SDS011;57135;51.992;4.476;2023-02-19T10:03:03;3.90;;;3.55;;
69837;SDS011;57135;51.992;4.476;2023-02-19T10:05:31;3.31;;;3.11;;
69837;SDS011;57135;51.992;4.476;2023-02-19T10:07:58;2.54;;;2.43;;
69837;SDS011;57135;51.992;4.476;2023-02-19T10:10:33;2.31;;;2.22;;
69837;SDS011;57135;51.992;4.476;2023-02-19T10:13:08;2.09;;;2.01;;
69837;SDS011;57135;51.992;4.476;2023-02-19T10:15:46;2.31;;;2.23;;
69837;SDS011;57135;51.992;4.476;2023-02-19T10:18:20;2.45;;;2.35;;
69837;SDS011;57135;51.992;4.476;2023-02-19T10:20:48;2.49;;;2.37;;
69837;SDS011;57135;51.992;4.476;2023-02-19T10:23:15;2.31;;;2.17;;
69837;SDS011;57135;51.992;4.476;2023-02-19T10:25:44;2.21;;;2.05;;
69837;SDS011;57135;51.992;4.476;2023-02-19T10:28:18;2.42;;;2.24;;
69837;SDS011;57135;51.992;4.476;2023-02-19T10:30:47;2.62;;;2.40;;
69837;SDS011;57135;51.992;4.476;2023-02-19T10:33:17;2.40;;;2.20;;
69837;SDS011;57135;51.992;4.476;2023-02-19T10:36:01;2.62;;;2.37;;
69837;SDS011;57135;51.992;4.476;2023-02-19T10:38:35;3.12;;;2.73;;
69837;SDS011;57135;51.992;4.476;2023-02-19T10:41:05;3.38;;;2.91;;
69837;SDS011;57135;51.992;4.476;2023-02-19T10:43:42;3.29;;;2.84;;
69837;SDS011;57135;51.992;4.476;2023-02-19T10:46:32;3.32;;;2.87;;
69837;SDS011;57135;51.992;4.476;2023-02-19T10:49:15;3.57;;;3.12;;
69837;SDS011;57135;51.992;4.476;2023-02-19T10:51:47;3.44;;;2.99;;
69837;SDS011;57135;51.992;4.476;2023-02-19T10:54:27;3.10;;;2.69;;
69837;SDS011;57135;51.992;4.476;2023-02-19T10:59:43;2.56;;;2.21;;
69837;SDS011;57135;51.992;4.476;2023-02-19T11:02:17;2.56;;;2.19;;
69837;SDS011;57135;51.992;4.476;2023-02-19T11:05:01;3.06;;;2.56;;
69837;SDS011;57135;51.992;4.476;2023-02-19T11:07:34;2.95;;;2.47;;
69837;SDS011;57135;51.992;4.476;2023-02-19T11:10:02;2.70;;;2.25;;
69837;SDS011;57135;51.992;4.476;2023-02-19T11:12:30;2.21;;;1.84;;
69837;SDS011;57135;51.992;4.476;2023-02-19T11:15:12;2.29;;;1.87;;
69837;SDS011;57135;51.992;4.476;2023-02-19T11:17:44;2.28;;;1.82;;
69837;SDS011;57135;51.992;4.476;2023-02-19T11:20:45;2.61;;;2.07;;
69837;SDS011;57135;51.992;4.476;2023-02-19T11:23:29;2.85;;;2.21;;
69837;SDS011;57135;51.992;4.476;2023-02-19T11:26:03;3.56;;;2.70;;
69837;SDS011;57135;51.992;4.476;2023-02-19T11:28:36;4.08;;;2.99;;
69837;SDS011;57135;51.992;4.476;2023-02-19T11:33:54;3.91;;;2.86;;
69837;SDS011;57135;51.992;4.476;2023-02-19T11:39:31;3.67;;;2.74;;
69837;SDS011;57135;51.992;4.476;2023-02-19T11:41:58;4.15;;;3.07;;
69837;SDS011;57135;51.992;4.476;2023-02-19T11:47:46;3.02;;;2.24;;
69837;SDS011;57135;51.992;4.476;2023-02-19T11:55:56;2.96;;;2.17;;
69837;SDS011;57135;51.992;4.476;2023-02-19T11:58:38;3.21;;;2.37;;
69837;SDS011;57135;51.992;4.476;2023-02-19T12:06:37;2.94;;;2.22;;
69837;SDS011;57135;51.992;4.476;2023-02-19T12:12:26;3.50;;;2.67;;
69837;SDS011;57135;51.992;4.476;2023-02-19T12:18:04;3.10;;;2.44;;
69837;SDS011;57135;51.992;4.476;2023-02-19T12:39:33;1.38;;;1.33;;
69837;SDS011;57135;51.992;4.476;2023-02-19T12:47:45;4.39;;;4.36;;
69837;SDS011;57135;51.992;4.476;2023-02-19T12:50:38;3.48;;;3.43;;
69837;SDS011;57135;51.992;4.476;2023-02-19T12:53:23;2.60;;;2.57;;
69837;SDS011;57135;51.992;4.476;2023-02-19T12:56:13;2.72;;;2.69;;
69837;SDS011;57135;51.992;4.476;2023-02-19T12:58:52;1.85;;;1.83;;
69837;SDS011;57135;51.992;4.476;2023-02-19T13:01:27;1.55;;;1.54;;
69837;SDS011;57135;51.992;4.476;2023-02-19T13:04:13;1.39;;;1.39;;
69837;SDS011;57135;51.992;4.476;2023-02-19T13:06:50;1.55;;;1.54;;
69837;SDS011;57135;51.992;4.476;2023-02-19T13:09:40;1.45;;;1.45;;
69837;SDS011;57135;51.992;4.476;2023-02-19T13:12:14;1.35;;;1.35;;
69837;SDS011;57135;51.992;4.476;2023-02-19T13:14:56;1.47;;;1.46;;
69837;SDS011;57135;51.992;4.476;2023-02-19T13:19:54;1.20;;;1.20;;
69837;SDS011;57135;51.992;4.476;2023-02-19T13:22:27;1.18;;;1.18;;
69837;SDS011;57135;51.992;4.476;2023-02-19T13:25:19;1.22;;;1.22;;
69837;SDS011;57135;51.992;4.476;2023-02-19T13:27:55;1.69;;;1.69;;
69837;SDS011;57135;51.992;4.476;2023-02-19T13:30:45;1.20;;;1.19;;
69837;SDS011;57135;51.992;4.476;2023-02-19T13:33:21;1.16;;;1.16;;
69837;SDS011;57135;51.992;4.476;2023-02-19T13:36:02;1.26;;;1.26;;
69837;SDS011;57135;51.992;4.476;2023-02-19T13:38:38;1.15;;;1.15;;
69837;SDS011;57135;51.992;4.476;2023-02-19T13:41:26;1.31;;;1.31;;
69837;SDS011;57135;51.992;4.476;2023-02-19T13:44:04;1.31;;;1.31;;
69837;SDS011;57135;51.992;4.476;2023-02-19T13:46:36;1.56;;;1.56;;
69837;SDS011;57135;51.992;4.476;2023-02-19T13:54:28;1.25;;;1.25;;
69837;SDS011;57135;51.992;4.476;2023-02-19T13:59:46;0.86;;;0.86;;
69837;SDS011;57135;51.992;4.476;2023-02-19T14:09:50;0.96;;;0.94;;
69837;SDS011;57135;51.992;4.476;2023-02-19T14:14:50;0.86;;;0.85;;
69837;SDS011;57135;51.992;4.476;2023-02-19T14:30:51;0.94;;;0.94;;
69837;SDS011;57135;51.992;4.476;2023-02-19T14:33:54;0.70;;;0.70;;
69837;SDS011;57135;51.992;4.476;2023-02-19T14:39:04;1.13;;;1.13;;
69837;SDS011;57135;51.992;4.476;2023-02-19T14:41:37;0.75;;;0.75;;
69837;SDS011;57135;51.992;4.476;2023-02-19T14:44:07;0.78;;;0.78;;
69837;SDS011;57135;51.992;4.476;2023-02-19T14:46:41;1.12;;;1.12;;
69837;SDS011;57135;51.992;4.476;2023-02-19T14:49:18;0.78;;;0.78;;
69837;SDS011;57135;51.992;4.476;2023-02-19T14:51:52;1.09;;;1.08;;
69837;SDS011;57135;51.992;4.476;2023-02-19T14:54:34;0.92;;;0.91;;
69837;SDS011;57135;51.992;4.476;2023-02-19T14:57:03;1.07;;;1.07;;
69837;SDS011;57135;51.992;4.476;2023-02-19T14:59:39;1.10;;;1.10;;
69837;SDS011;57135;51.992;4.476;2023-02-19T15:02:19;1.12;;;1.12;;
69837;SDS011;57135;51.992;4.476;2023-02-19T15:04:45;1.00;;;1.00;;
69837;SDS011;57135;51.992;4.476;2023-02-19T15:07:16;0.95;;;0.95;;
69837;SDS011;57135;51.992;4.476;2023-02-19T15:09:48;0.76;;;0.76;;
69837;SDS011;57135;51.992;4.476;2023-02-19T15:12:23;0.64;;;0.64;;
69837;SDS011;57135;51.992;4.476;2023-02-19T15:14:53;0.72;;;0.72;;
69837;SDS011;57135;51.992;4.476;2023-02-19T15:17:24;0.64;;;0.64;;
69837;SDS011;57135;51.992;4.476;2023-02-19T15:19:52;1.05;;;1.05;;
69837;SDS011;57135;51.992;4.476;2023-02-19T15:22:20;1.04;;;1.04;;
69837;SDS011;57135;51.992;4.476;2023-02-19T15:24:48;1.05;;;1.05;;
69837;SDS011;57135;51.992;4.476;2023-02-19T15:27:15;1.03;;;1.03;;
69837;SDS011;57135;51.992;4.476;2023-02-19T15:29:45;1.03;;;1.03;;
69837;SDS011;57135;51.992;4.476;2023-02-19T15:32:14;1.24;;;1.24;;
69837;SDS011;57135;51.992;4.476;2023-02-19T15:34:42;1.19;;;1.19;;
69837;SDS011;57135;51.992;4.476;2023-02-19T15:37:18;1.02;;;1.02;;
69837;SDS011;57135;51.992;4.476;2023-02-19T15:39:44;0.75;;;0.75;;
69837;SDS011;57135;51.992;4.476;2023-02-19T15:42:25;0.66;;;0.66;;
69837;SDS011;57135;51.992;4.476;2023-02-19T15:45:04;0.68;;;0.67;;
69837;SDS011;57135;51.992;4.476;2023-02-19T15:50:14;0.67;;;0.67;;
69837;SDS011;57135;51.992;4.476;2023-02-19T15:52:44;0.72;;;0.72;;
69837;SDS011;57135;51.992;4.476;2023-02-19T15:55:27;0.85;;;0.84;;
69837;SDS011;57135;51.992;4.476;2023-02-19T16:03:17;0.79;;;0.78;;
69837;SDS011;57135;51.992;4.476;2023-02-19T16:05:45;0.82;;;0.80;;
69837;SDS011;57135;51.992;4.476;2023-02-19T16:10:37;0.71;;;0.68;;
69837;SDS011;57135;51.992;4.476;2023-02-19T16:13:03;0.84;;;0.81;;
69837;SDS011;57135;51.992;4.476;2023-02-19T16:15:31;0.89;;;0.85;;
69837;SDS011;57135;51.992;4.476;2023-02-19T16:17:57;0.89;;;0.85;;
69837;SDS011;57135;51.992;4.476;2023-02-19T16:20:27;0.82;;;0.78;;
69837;SDS011;57135;51.992;4.476;2023-02-19T16:23:09;1.28;;;1.20;;
69837;SDS011;57135;51.992;4.476;2023-02-19T16:25:39;2.92;;;2.72;;
69837;SDS011;57135;51.992;4.476;2023-02-19T16:28:09;1.71;;;1.59;;
69837;SDS011;57135;51.992;4.476;2023-02-19T16:30:34;1.12;;;1.06;;
69837;SDS011;57135;51.992;4.476;2023-02-19T16:35:50;1.10;;;1.08;;
69837;SDS011;57135;51.992;4.476;2023-02-19T16:38:16;1.00;;;0.98;;
69837;SDS011;57135;51.992;4.476;2023-02-19T16:45:41;1.00;;;0.98;;
69837;SDS011;57135;51.992;4.476;2023-02-19T16:48:09;1.07;;;1.03;;
69837;SDS011;57135;51.992;4.476;2023-02-19T16:50:37;1.06;;;1.02;;
69837;SDS011;57135;51.992;4.476;2023-02-19T16:53:05;1.55;;;1.51;;
69837;SDS011;57135;51.992;4.476;2023-02-19T16:55:31;1.79;;;1.76;;
69837;SDS011;57135;51.992;4.476;2023-02-19T16:57:58;1.32;;;1.31;;
69837;SDS011;57135;51.992;4.476;2023-02-19T17:00:25;1.92;;;1.89;;
69837;SDS011;57135;51.992;4.476;2023-02-19T17:02:57;2.28;;;2.20;;
69837;SDS011;57135;51.992;4.476;2023-02-19T17:05:26;2.63;;;2.54;;
69837;SDS011;57135;51.992;4.476;2023-02-19T17:07:54;2.27;;;2.19;;
69837;SDS011;57135;51.992;4.476;2023-02-19T17:10:21;3.37;;;3.19;;
69837;SDS011;57135;51.992;4.476;2023-02-19T17:12:48;3.55;;;3.27;;
69837;SDS011;57135;51.992;4.476;2023-02-19T17:15:14;3.68;;;3.40;;
69837;SDS011;57135;51.992;4.476;2023-02-19T17:17:40;2.47;;;2.27;;
69837;SDS011;57135;51.992;4.476;2023-02-19T17:20:25;1.94;;;1.80;;
69837;SDS011;57135;51.992;4.476;2023-02-19T17:22:54;2.87;;;2.65;;
69837;SDS011;57135;51.992;4.476;2023-02-19T17:25:19;3.43;;;3.16;;
69837;SDS011;57135;51.992;4.476;2023-02-19T17:27:45;2.99;;;2.78;;
69837;SDS011;57135;51.992;4.476;2023-02-19T17:30:12;2.99;;;2.81;;